Time;durP1;ratioP1;P1;durP2;ratioP2;P2;SDS_P1;SDS_P2;PMS_P1;PMS_P2;Temp;Humidity;BMP_temperature;BMP_pressure;BME280_temperature;BME280_humidity;BME280_pressure;Samples;Min_cycle;Max_cycle;Signal;HPM_P1;HPM_P2
2022/03/10 05:22:44;;;;;;;18.70;9.77;;;;;;;-2.37;82.57;101152.47;5150548;27;20175;-73
2022/03/10 05:25:10;;;;;;;19.90;10.20;;;;;;;-2.36;82.95;101146.31;5111569;28;20039;-70
2022/03/10 05:27:35;;;;;;;15.65;9.68;;;;;;;-2.46;83.55;101143.28;5109488;28;20032;-69
2022/03/10 05:30:02;;;;;;;17.05;10.13;;;;;;;-2.44;83.10;101144.06;5109466;28;20507;-70
2022/03/10 05:32:27;;;;;;;20.30;10.77;;;;;;;-2.42;83.34;101146.59;5109507;28;20034;-71
2022/03/10 05:34:54;;;;;;;23.17;10.68;;;;;;;-2.37;82.45;101153.31;5091092;28;20039;-70
2022/03/10 05:37:20;;;;;;;17.50;9.80;;;;;;;-2.42;83.42;101151.81;5109325;28;20139;-73
2022/03/10 05:39:46;;;;;;;16.27;9.88;;;;;;;-2.47;83.49;101147.66;5109152;28;20127;-71
2022/03/10 05:42:11;;;;;;;22.33;10.15;;;;;;;-2.43;83.61;101157.94;5108779;28;20043;-73
2022/03/10 05:44:38;;;;;;;18.83;10.27;;;;;;;-2.36;83.15;101168.03;5109095;28;20032;-70
2022/03/10 05:47:06;;;;;;;17.95;9.55;;;;;;;-2.42;83.98;101170.06;5109164;28;20039;-70
2022/03/10 05:49:32;;;;;;;18.98;11.25;;;;;;;-2.39;83.57;101169.97;5108985;28;20489;-70
2022/03/10 05:51:57;;;;;;;21.33;10.80;;;;;;;-2.40;83.54;101179.56;5108594;28;20028;-69
2022/03/10 05:54:23;;;;;;;19.33;10.15;;;;;;;-2.43;83.32;101184.03;5108926;28;20043;-70
2022/03/10 05:56:48;;;;;;;17.63;10.95;;;;;;;-2.47;84.76;101183.34;5090559;28;20036;-71
2022/03/10 05:59:14;;;;;;;17.52;10.32;;;;;;;-2.47;83.21;101178.97;5108963;28;20047;-71
2022/03/10 06:01:40;;;;;;;22.02;10.00;;;;;;;-2.48;82.28;101173.81;5090316;28;20043;-70
2022/03/10 06:04:05;;;;;;;21.50;10.43;;;;;;;-2.48;82.06;101174.69;5090618;28;20051;-70
2022/03/10 06:06:31;;;;;;;18.02;8.70;;;;;;;-2.47;81.71;101171.16;5090466;28;20036;-70
2022/03/10 06:08:56;;;;;;;15.20;9.70;;;;;;;-2.49;82.41;101170.34;5108667;28;20036;-70
2022/03/10 06:11:22;;;;;;;17.65;9.60;;;;;;;-2.46;82.16;101180.66;5108620;28;20039;-70
2022/03/10 06:13:48;;;;;;;15.75;9.38;;;;;;;-2.48;82.09;101179.91;5090199;28;20036;-70
2022/03/10 06:16:13;;;;;;;15.90;10.30;;;;;;;-2.36;81.75;101177.63;5108402;28;20185;-70
2022/03/10 06:18:39;;;;;;;22.02;10.27;;;;;;;-2.32;82.25;101176.59;5108441;28;20146;-70
2022/03/10 06:21:05;;;;;;;16.20;9.70;;;;;;;-2.29;82.67;101169.47;5108236;28;20036;-70
2022/03/10 06:23:30;;;;;;;18.45;9.50;;;;;;;-2.27;83.57;101177.25;5108095;28;20043;-70
2022/03/10 06:25:56;;;;;;;19.40;10.68;;;;;;;-2.18;83.47;101176.81;5089987;28;20116;-71
2022/03/10 06:28:22;;;;;;;16.63;9.30;;;;;;;-2.10;83.01;101182.53;5089956;28;20044;-71
2022/03/10 06:30:48;;;;;;;21.52;9.68;;;;;;;-2.01;83.68;101178.69;5108270;28;20032;-71
2022/03/10 06:33:13;;;;;;;17.75;10.25;;;;;;;-1.87;82.65;101178.03;5098192;28;20059;-71
2022/03/10 06:35:39;;;;;;;16.77;9.43;;;;;;;-1.81;83.50;101178.59;5094528;28;20039;-71
2022/03/10 06:38:05;;;;;;;16.23;9.48;;;;;;;-1.59;82.68;101178.41;5094782;28;20050;-71
2022/03/10 06:40:31;;;;;;;16.63;9.50;;;;;;;-1.44;80.63;101182.91;5076096;28;20040;-71
2022/03/10 06:42:57;;;;;;;16.40;9.75;;;;;;;-1.23;79.10;101178.41;5094121;28;20574;-72
2022/03/10 06:45:23;;;;;;;16.55;9.73;;;;;;;-1.20;81.62;101186.09;5094327;28;20039;-71
2022/03/10 06:47:48;;;;;;;17.48;10.23;;;;;;;-1.01;79.17;101195.66;5076266;28;20032;-70
2022/03/10 06:50:14;;;;;;;16.70;10.25;;;;;;;-0.84;77.86;101196.50;5094265;28;20059;-71
2022/03/10 06:52:39;;;;;;;15.35;9.20;;;;;;;-0.68;77.94;101200.97;5093934;28;20040;-71
2022/03/10 06:55:05;;;;;;;16.95;10.15;;;;;;;-0.53;77.14;101202.78;5076194;28;20112;-71
2022/03/10 06:57:31;;;;;;;16.35;9.77;;;;;;;-0.39;75.99;101210.78;5094059;28;20046;-71
2022/03/10 06:59:57;;;;;;;18.92;10.82;;;;;;;-0.33;76.25;101212.22;5094178;28;20040;-72
2022/03/10 07:02:23;;;;;;;17.88;10.38;;;;;;;-0.25;76.72;101219.69;5093654;28;20044;-71
2022/03/10 07:04:49;;;;;;;15.77;10.38;;;;;;;0.07;74.63;101218.00;5094054;28;20039;-71
2022/03/10 07:07:15;;;;;;;18.30;10.35;;;;;;;0.24;74.78;101221.38;5075873;28;20032;-70
2022/03/10 07:09:41;;;;;;;18.58;10.95;;;;;;;0.19;72.51;101212.91;5093892;28;20048;-70
2022/03/10 07:12:09;;;;;;;23.60;11.27;;;;;;;0.31;71.31;101221.03;5075971;28;20028;-72
2022/03/10 07:14:34;;;;;;;17.73;11.32;;;;;;;0.42;72.47;101221.31;5093953;28;20495;-70
2022/03/10 07:17:00;;;;;;;17.48;10.73;;;;;;;0.61;73.15;101216.72;5093598;28;20079;-70
2022/03/10 07:19:26;;;;;;;19.52;11.43;;;;;;;1.06;71.93;101218.53;5093660;28;20111;-69
2022/03/10 07:21:51;;;;;;;20.70;10.68;;;;;;;1.28;70.55;101219.88;5093221;28;20189;-70
2022/03/10 07:24:17;;;;;;;17.00;11.40;;;;;;;1.41;68.37;101214.75;5059072;28;20040;-70
2022/03/10 07:26:43;;;;;;;20.27;11.73;;;;;;;1.59;68.23;101219.75;5075543;28;20036;-71
2022/03/10 07:29:09;;;;;;;19.67;12.60;;;;;;;1.69;65.42;101220.03;5093606;28;20061;-71
2022/03/10 07:31:34;;;;;;;17.58;10.80;;;;;;;1.88;64.90;101225.03;5075210;28;20051;-71
2022/03/10 07:34:00;;;;;;;21.33;11.75;;;;;;;2.06;63.66;101217.78;5075062;28;20028;-70
2022/03/10 07:36:26;;;;;;;20.13;10.55;;;;;;;2.26;63.34;101219.19;5093343;28;20040;-69
2022/03/10 07:38:52;;;;;;;19.00;10.93;;;;;;;2.47;64.06;101212.56;5093225;28;20036;-70
2022/03/10 07:41:18;;;;;;;19.25;11.20;;;;;;;2.42;63.03;101226.03;5093026;28;20044;-70
2022/03/10 07:43:44;;;;;;;20.08;12.52;;;;;;;2.80;62.88;101220.06;5074144;28;20040;-69
2022/03/10 07:46:10;;;;;;;21.33;11.63;;;;;;;3.01;61.53;101217.00;5092745;28;20032;-70
2022/03/10 07:48:35;;;;;;;18.77;12.10;;;;;;;3.16;59.43;101211.53;5074923;28;20093;-69
2022/03/10 07:51:01;;;;;;;21.48;12.93;;;;;;;3.15;60.32;101211.66;5093062;28;20111;-71
2022/03/10 07:53:27;;;;;;;18.52;11.68;;;;;;;2.92;59.66;101211.38;5092585;28;20481;-71
2022/03/10 07:55:56;;;;;;;18.98;11.52;;;;;;;3.37;58.32;101209.25;5092877;28;20040;-71
2022/03/10 07:58:25;;;;;;;20.67;11.05;;;;;;;3.65;56.91;101210.88;5075281;28;20529;-71
2022/03/10 08:00:54;;;;;;;19.00;10.68;;;;;;;3.65;57.99;101202.97;5092971;28;20422;-71
2022/03/10 08:03:23;;;;;;;18.15;10.20;;;;;;;3.96;56.69;101206.09;5092526;28;20040;-71
2022/03/10 08:05:50;;;;;;;15.82;10.50;;;;;;;4.28;56.11;101199.41;5092570;28;20051;-71
2022/03/10 08:08:16;;;;;;;19.38;11.35;;;;;;;4.24;55.77;101210.28;5074699;28;20173;-71
2022/03/10 08:10:43;;;;;;;22.15;11.05;;;;;;;4.48;55.87;101205.03;5092814;28;20035;-71
2022/03/10 08:13:09;;;;;;;18.30;10.88;;;;;;;4.47;55.04;101201.56;5092441;28;20039;-71
2022/03/10 08:15:34;;;;;;;18.25;10.70;;;;;;;4.76;54.65;101199.44;5092791;28;20396;-72
2022/03/10 08:18:00;;;;;;;17.30;11.00;;;;;;;5.12;54.65;101193.22;5092791;28;20036;-72
2022/03/10 08:20:25;;;;;;;17.20;10.13;;;;;;;5.45;52.39;101189.81;5092613;28;20051;-71
2022/03/10 08:22:51;;;;;;;16.15;10.15;;;;;;;5.70;50.19;101185.28;5092588;28;20028;-71
2022/03/10 08:25:17;;;;;;;18.00;10.02;;;;;;;5.94;49.98;101179.94;5092527;28;20036;-71
2022/03/10 08:27:45;;;;;;;18.27;10.60;;;;;;;6.21;48.91;101169.81;5092580;28;20040;-71
2022/03/10 08:30:13;;;;;;;17.38;11.35;;;;;;;6.24;48.47;101168.72;5074753;28;20493;-71
2022/03/10 08:32:45;;;;;;;18.40;10.35;;;;;;;6.47;48.25;101162.41;5074242;28;20036;-70
2022/03/10 08:35:12;;;;;;;19.33;11.55;;;;;;;6.63;48.62;101167.28;5074154;28;20070;-70
2022/03/10 08:37:38;;;;;;;18.02;10.45;;;;;;;7.03;47.81;101159.53;5074134;28;20036;-70
2022/03/10 08:40:05;;;;;;;18.50;11.15;;;;;;;7.16;46.81;101155.84;5092258;28;20032;-69
2022/03/10 08:42:31;;;;;;;17.05;9.98;;;;;;;7.13;46.47;101156.13;5073697;28;20093;-70
2022/03/10 08:44:57;;;;;;;17.88;10.93;;;;;;;7.48;46.34;101158.44;5073948;28;20043;-69
2022/03/10 08:47:23;;;;;;;16.40;10.52;;;;;;;7.85;47.12;101150.81;5092008;28;20038;-69
2022/03/10 08:49:49;;;;;;;18.95;10.05;;;;;;;7.99;43.95;101154.91;5091968;28;20028;-70
2022/03/10 08:52:15;;;;;;;14.40;9.63;;;;;;;8.15;43.08;101147.28;5073629;28;20453;-71
2022/03/10 08:54:41;;;;;;;15.13;9.75;;;;;;;8.21;43.40;101144.06;5091678;28;20035;-70
2022/03/10 08:57:06;;;;;;;18.52;10.75;;;;;;;8.29;44.93;101141.59;5091760;28;20035;-70
2022/03/10 08:59:32;;;;;;;15.88;10.32;;;;;;;8.62;43.76;101139.56;5092258;28;20064;-71
2022/03/10 09:01:58;;;;;;;17.65;10.98;;;;;;;8.75;42.20;101137.47;5073761;28;20477;-71
2022/03/10 09:04:23;;;;;;;14.98;10.23;;;;;;;9.02;42.25;101128.78;5091981;28;20036;-72
2022/03/10 09:06:49;;;;;;;19.63;10.85;;;;;;;8.92;43.65;101119.97;5057090;28;20037;-72
2022/03/10 09:09:16;;;;;;;19.77;10.95;;;;;;;9.38;42.68;101116.53;5091975;28;20546;-71
2022/03/10 09:11:42;;;;;;;17.70;11.37;;;;;;;9.31;43.12;101112.75;5091735;28;20028;-72
2022/03/10 09:14:07;;;;;;;16.42;10.60;;;;;;;9.51;44.20;101105.56;5092217;28;20054;-72
2022/03/10 09:16:33;;;;;;;16.83;11.00;;;;;;;9.75;42.68;101108.56;5091883;28;20484;-72
2022/03/10 09:19:00;;;;;;;17.00;10.48;;;;;;;10.07;41.35;101101.94;5073651;28;20043;-72
2022/03/10 09:21:26;;;;;;;16.10;10.75;;;;;;;10.21;41.56;101100.59;5057194;28;20043;-72
2022/03/10 09:23:53;;;;;;;13.80;10.02;;;;;;;10.46;39.66;101091.06;5056884;28;20036;-72
2022/03/10 09:26:18;;;;;;;17.52;10.45;;;;;;;10.75;39.62;101091.66;5091650;28;20028;-71
2022/03/10 09:28:45;;;;;;;17.90;11.05;;;;;;;10.91;39.26;101096.31;5091844;28;20043;-71
2022/03/10 09:31:12;;;;;;;16.80;10.32;;;;;;;11.09;40.94;101091.78;5073263;28;20043;-70
2022/03/10 09:33:41;;;;;;;14.50;9.73;;;;;;;11.42;38.18;101089.31;5091397;28;20047;-71
2022/03/10 09:36:06;;;;;;;14.05;9.05;;;;;;;11.78;37.08;101086.47;5091641;28;20399;-71
2022/03/10 09:38:32;;;;;;;13.65;9.00;;;;;;;12.39;38.41;101090.69;5073360;28;20126;-72
2022/03/10 09:40:57;;;;;;;12.93;8.60;;;;;;;12.45;35.71;101082.00;5091562;28;20028;-71
2022/03/10 09:43:28;;;;;;;13.32;8.95;;;;;;;12.66;35.39;101074.34;5073103;28;20404;-71
2022/03/10 09:45:54;;;;;;;12.27;9.02;;;;;;;12.96;35.29;101064.78;5091441;28;20286;-70
2022/03/10 09:48:20;;;;;;;14.15;8.65;;;;;;;13.25;34.90;101063.47;5091733;28;20043;-72
2022/03/10 09:50:47;;;;;;;11.98;6.97;;;;;;;13.55;34.80;101061.84;5091508;28;20040;-70
2022/03/10 09:53:13;;;;;;;10.93;6.90;;;;;;;13.81;32.38;101054.38;5073073;28;20094;-70
2022/03/10 09:55:39;;;;;;;8.52;5.55;;;;;;;14.32;31.51;101059.28;5091290;28;20047;-70
2022/03/10 09:58:05;;;;;;;8.93;5.70;;;;;;;14.69;30.20;101055.03;5091188;28;20028;-70
2022/03/10 10:00:31;;;;;;;9.85;6.28;;;;;;;14.78;29.44;101061.97;5091376;28;20040;-70
2022/03/10 10:02:57;;;;;;;8.10;5.22;;;;;;;15.36;28.81;101055.88;5090866;28;20036;-70
2022/03/10 10:05:41;;;;;;;6.80;4.75;;;;;;;16.01;28.74;101051.56;5091219;28;20036;-70
2022/03/10 10:08:14;;;;;;;5.32;3.85;;;;;;;16.25;27.21;101045.84;5074833;28;20130;-71
2022/03/10 10:10:45;;;;;;;6.80;5.20;;;;;;;16.88;27.00;101043.31;5094996;28;20535;-71
2022/03/10 10:13:30;;;;;;;6.57;4.50;;;;;;;17.27;26.35;101036.56;5094663;28;20031;-71
2022/03/10 10:15:57;;;;;;;5.95;3.78;;;;;;;17.67;25.66;101034.06;5094966;28;20150;-70
2022/03/10 10:18:23;;;;;;;5.88;3.75;;;;;;;17.47;25.21;101034.78;5094883;28;20020;-71
2022/03/10 10:20:51;;;;;;;5.50;4.07;;;;;;;18.22;23.98;101033.03;5076868;28;20036;-71
2022/03/10 10:23:20;;;;;;;6.97;4.70;;;;;;;18.54;23.99;101038.69;5076559;28;20036;-71
2022/03/10 10:25:54;;;;;;;5.90;4.30;;;;;;;18.96;23.72;101022.09;5094822;28;20060;-71
2022/03/10 10:28:27;;;;;;;5.63;4.35;;;;;;;18.69;23.36;101029.38;5095144;28;20396;-71
2022/03/10 10:31:00;;;;;;;6.68;4.18;;;;;;;18.63;24.16;101035.56;5094847;28;20071;-72
2022/03/10 10:33:28;;;;;;;5.30;4.03;;;;;;;18.49;23.58;101027.69;5076538;28;20509;-70
2022/03/10 10:36:11;;;;;;;4.47;3.58;;;;;;;18.85;23.27;101027.31;5076397;28;20055;-71
2022/03/10 10:38:36;;;;;;;5.88;4.20;;;;;;;19.52;24.08;101029.66;5094668;28;20542;-72
2022/03/10 10:41:29;;;;;;;5.43;3.80;;;;;;;19.77;21.80;101024.41;5076249;28;20036;-73
2022/03/10 10:43:57;;;;;;;4.80;3.42;;;;;;;19.64;21.56;101018.25;5094289;28;20514;-72
2022/03/10 10:46:37;;;;;;;5.38;3.00;;;;;;;19.66;21.49;101018.84;5076366;28;20047;-73
2022/03/10 10:49:06;;;;;;;4.38;3.25;;;;;;;19.86;21.91;101024.97;5094422;28;20040;-73
2022/03/10 10:51:43;;;;;;;4.57;3.28;;;;;;;20.26;21.30;101014.75;5094241;28;20047;-72
2022/03/10 10:54:23;;;;;;;4.03;2.90;;;;;;;20.02;21.10;101018.25;5095182;28;20043;-72
2022/03/10 10:56:49;;;;;;;3.72;2.90;;;;;;;20.59;20.88;101006.44;5076251;28;20032;-72
2022/03/10 10:59:30;;;;;;;4.10;3.00;;;;;;;20.73;19.83;101004.44;5094125;28;20110;-72
2022/03/10 11:02:20;;;;;;;4.80;3.15;;;;;;;20.31;20.48;101006.00;5075747;28;20040;-72
2022/03/10 11:04:47;;;;;;;4.13;2.97;;;;;;;20.73;20.43;100993.59;5081623;28;20043;-73
2022/03/10 11:07:14;;;;;;;;;;;;;;;20.82;20.29;100992.28;5076478;28;20040;-72
2022/03/10 11:09:45;;;;;;;4.95;2.63;;;;;;;20.65;19.56;100993.88;5094160;28;19919;-72
2022/03/10 11:12:13;;;;;;;6.03;3.13;;;;;;;21.02;20.29;100988.56;5093694;28;20043;-73
2022/03/10 11:14:40;;;;;;;5.43;3.10;;;;;;;20.39;19.92;100985.97;5093989;28;20032;-73
2022/03/10 11:17:07;;;;;;;4.93;3.30;;;;;;;20.81;19.55;100985.22;5093870;28;20039;-70
2022/03/10 11:19:38;;;;;;;5.20;3.38;;;;;;;21.19;19.37;100977.94;5093735;28;20396;-71
2022/03/10 11:22:45;;;;;;;5.70;4.10;;;;;;;21.17;20.26;100961.09;5093768;28;20032;-72
2022/03/10 11:25:17;;;;;;;8.30;4.60;;;;;;;21.84;20.13;100972.78;5075504;28;20028;-71
2022/03/10 11:27:55;;;;;;;8.32;5.13;;;;;;;22.34;19.74;100964.34;5075585;28;20032;-71
2022/03/10 11:30:25;;;;;;;8.43;5.20;;;;;;;22.05;20.08;100966.03;5075604;28;20490;-70
2022/03/10 11:33:06;;;;;;;6.22;5.05;;;;;;;21.71;19.89;100967.53;5113027;22;20063;-71
2022/03/10 11:35:38;;;;;;;8.10;5.15;;;;;;;22.03;19.78;100958.09;5093398;28;20028;-71
2022/03/10 11:38:04;;;;;;;6.28;4.97;;;;;;;22.31;19.45;100956.69;5093496;28;20043;-71
2022/03/10 11:40:52;;;;;;;7.90;5.13;;;;;;;21.82;19.78;100954.03;5093257;28;20032;-70
2022/03/10 11:43:27;;;;;;;5.95;5.05;;;;;;;22.66;19.45;100943.13;5071238;28;20036;-70
2022/03/10 11:46:20;;;;;;;7.57;5.22;;;;;;;22.59;19.72;100939.72;5073073;28;20393;-72
2022/03/10 11:49:04;;;;;;;7.07;5.22;;;;;;;22.31;19.32;100935.81;5071605;28;20412;-71
2022/03/10 11:51:48;;;;;;;6.32;4.80;;;;;;;22.58;19.25;100947.03;5088417;28;20035;-71
2022/03/10 11:54:19;;;;;;;8.43;5.72;;;;;;;22.15;19.29;100933.75;5072706;28;20032;-71
2022/03/10 11:56:45;;;;;;;9.80;5.57;;;;;;;22.76;18.85;100943.38;5072656;28;20036;-71
2022/03/10 11:59:18;;;;;;;7.13;5.80;;;;;;;22.37;19.72;100928.63;5072816;28;20047;-71
2022/03/10 12:01:44;;;;;;;8.95;5.47;;;;;;;23.05;18.98;100936.16;5070819;28;20048;-71
2022/03/10 12:04:17;;;;;;;6.50;5.25;;;;;;;22.82;19.46;100928.84;5072315;28;20033;-71
2022/03/10 12:06:58;;;;;;;6.55;5.00;;;;;;;22.17;19.04;100934.38;5072415;28;20043;-70
2022/03/10 12:09:29;;;;;;;5.82;4.82;;;;;;;22.67;18.55;100909.50;5072336;28;20086;-70
2022/03/10 12:12:14;;;;;;;5.50;4.82;;;;;;;22.57;18.68;100910.09;5071885;28;20036;-71
2022/03/10 12:14:40;;;;;;;4.50;3.95;;;;;;;23.40;18.05;100917.03;5072221;28;20032;-71
2022/03/10 12:17:52;;;;;;;7.10;4.70;;;;;;;22.26;18.70;100916.69;5072174;28;20474;-71
2022/03/10 12:20:38;;;;;;;5.32;3.90;;;;;;;22.78;17.72;100911.38;5072300;28;20033;-70
2022/03/10 12:23:06;;;;;;;4.53;3.60;;;;;;;23.57;17.28;100917.09;5071944;28;20032;-71
2022/03/10 12:26:00;;;;;;;4.97;3.70;;;;;;;23.51;17.36;100901.75;5072091;28;20028;-71
2022/03/10 12:28:30;;;;;;;5.47;3.65;;;;;;;24.33;16.83;100901.31;5064904;28;20186;-71
2022/03/10 12:31:11;;;;;;;4.13;3.22;;;;;;;24.46;16.99;100898.28;5071618;28;20393;-71
2022/03/10 12:33:57;;;;;;;3.72;2.80;;;;;;;25.27;15.58;100889.56;5072010;28;20036;-71
2022/03/10 12:36:49;;;;;;;2.60;2.10;;;;;;;25.73;14.40;100892.81;5071953;28;20052;-72
2022/03/10 12:39:20;;;;;;;3.67;2.63;;;;;;;25.66;15.23;100891.09;5071988;28;20032;-71
2022/03/10 12:41:48;;;;;;;3.80;2.80;;;;;;;25.49;14.91;100887.63;5071465;28;20036;-71
2022/03/10 12:44:18;;;;;;;4.80;2.95;;;;;;;24.81;15.06;100878.91;5072247;28;20359;-71
2022/03/10 12:46:44;;;;;;;4.32;2.70;;;;;;;24.58;15.41;100870.94;5071639;28;20489;-71
2022/03/10 12:49:42;;;;;;;5.65;2.97;;;;;;;24.99;15.12;100872.31;5071699;28;20206;-71
2022/03/10 12:52:13;;;;;;;5.28;3.10;;;;;;;23.66;16.44;100866.72;5071186;28;20051;-71
2022/03/10 12:54:39;;;;;;;5.28;3.00;;;;;;;23.61;16.48;100857.63;5070411;28;20028;-71
2022/03/10 12:57:07;;;;;;;3.38;2.75;;;;;;;24.17;15.49;100859.41;5071801;28;20036;-70
2022/03/10 12:59:35;;;;;;;5.00;3.15;;;;;;;24.15;15.91;100852.59;5071767;28;20438;-71
2022/03/10 13:02:22;;;;;;;3.58;3.20;;;;;;;23.58;15.97;100855.38;5071248;28;20864;-71
2022/03/10 13:04:49;;;;;;;4.18;3.00;;;;;;;23.21;16.18;100859.34;5070616;28;20516;-71
2022/03/10 13:07:18;;;;;;;3.97;3.13;;;;;;;23.34;16.49;100849.22;5071982;28;20047;-70
2022/03/10 13:09:58;;;;;;;3.55;3.10;;;;;;;23.55;16.31;100843.94;5071496;28;20112;-69
2022/03/10 13:12:37;;;;;;;3.80;3.03;;;;;;;23.47;16.29;100838.91;5071050;28;20525;-69
2022/03/10 13:15:05;;;;;;;4.70;3.38;;;;;;;23.24;16.59;100839.81;5071667;28;20457;-69
2022/03/10 13:17:38;;;;;;;3.15;2.85;;;;;;;22.66;17.19;100848.09;5071601;28;20043;-72
2022/03/10 13:20:11;;;;;;;6.20;3.35;;;;;;;22.91;16.68;100840.53;5071298;28;20141;-70
2022/03/10 13:22:37;;;;;;;5.88;3.25;;;;;;;23.12;16.19;100832.78;5070136;28;20037;-69
2022/03/10 13:25:03;;;;;;;4.70;3.67;;;;;;;23.07;16.51;100835.41;5071738;28;20030;-70
2022/03/10 13:27:30;;;;;;;4.20;3.35;;;;;;;23.01;16.58;100831.75;5071362;28;20032;-70
2022/03/10 13:29:56;;;;;;;4.00;3.20;;;;;;;22.39;17.04;100818.75;5071224;28;20038;-70
2022/03/10 13:32:31;;;;;;;3.47;3.00;;;;;;;22.93;16.59;100821.28;5070695;28;20373;-70
2022/03/10 13:35:03;;;;;;;3.80;2.80;;;;;;;22.71;17.00;100816.47;5071216;28;20086;-71
2022/03/10 13:37:30;;;;;;;4.53;3.15;;;;;;;22.87;16.48;100820.34;5071072;28;20044;-70
2022/03/10 13:39:56;;;;;;;4.47;2.83;;;;;;;23.37;15.89;100814.25;5071032;28;20553;-70
2022/03/10 13:42:24;;;;;;;4.22;2.88;;;;;;;22.93;16.11;100811.22;5071161;28;20036;-71
2022/03/10 13:45:07;;;;;;;5.93;2.85;;;;;;;22.78;16.32;100808.19;5075215;28;20032;-71
2022/03/10 13:47:57;;;;;;;3.50;3.08;;;;;;;22.58;16.53;100796.91;5073900;28;20040;-70
2022/03/10 13:50:34;;;;;;;3.20;2.65;;;;;;;22.57;16.64;100800.69;5075066;28;20044;-70
2022/03/10 13:53:08;;;;;;;4.47;3.60;;;;;;;22.23;16.44;100786.91;5074852;28;20052;-70
2022/03/10 13:55:46;;;;;;;4.05;2.78;;;;;;;21.85;16.60;100769.19;5075027;28;20034;-71
2022/03/10 13:58:13;;;;;;;5.10;2.70;;;;;;;20.63;17.39;100787.59;5075095;28;20060;-70
2022/03/10 14:00:45;;;;;;;3.17;2.45;;;;;;;21.03;17.72;100760.84;5074828;28;20469;-70
2022/03/10 14:03:17;;;;;;;3.20;2.40;;;;;;;20.77;18.46;100772.84;5074878;28;20050;-70
2022/03/10 14:05:47;;;;;;;3.20;2.90;;;;;;;20.76;17.91;100765.78;5074833;28;20111;-69
2022/03/10 14:08:17;;;;;;;3.25;2.55;;;;;;;20.38;18.59;100759.75;5074826;28;20059;-69
2022/03/10 14:11:01;;;;;;;2.70;2.15;;;;;;;20.04;18.96;100761.97;5074578;28;20129;-70
2022/03/10 14:13:28;;;;;;;4.20;2.50;;;;;;;20.01;19.05;100762.41;5074374;28;20059;-69
2022/03/10 14:16:05;;;;;;;3.05;2.22;;;;;;;19.68;18.88;100757.31;5074778;28;20499;-70
2022/03/10 14:18:32;;;;;;;3.22;2.50;;;;;;;19.54;19.04;100748.44;5074718;28;20067;-70
2022/03/10 14:21:08;;;;;;;3.95;2.83;;;;;;;19.47;18.97;100753.91;5074598;28;20431;-70
2022/03/10 14:23:34;;;;;;;3.88;2.08;;;;;;;19.00;18.95;100751.75;5074395;28;20036;-69
2022/03/10 14:26:14;;;;;;;2.92;2.28;;;;;;;18.70;19.37;100757.69;5074459;28;20056;-70
2022/03/10 14:28:48;;;;;;;3.25;2.08;;;;;;;18.53;19.47;100764.59;5074450;28;20028;-70
2022/03/10 14:31:23;;;;;;;4.13;2.42;;;;;;;18.37;19.23;100753.19;5074137;28;20037;-70
2022/03/10 14:33:50;;;;;;;2.85;2.05;;;;;;;18.29;19.68;100755.31;5074098;28;20473;-69
2022/03/10 14:36:20;;;;;;;;;;;;;;;18.07;19.78;100749.34;5074667;28;20158;-69
2022/03/10 14:38:47;;;;;;;2.55;2.00;;;;;;;17.86;20.34;100748.53;5074208;28;19961;-69
2022/03/10 14:41:27;;;;;;;3.53;2.00;;;;;;;17.97;19.56;100740.84;5074260;28;20032;-69
2022/03/10 14:43:53;;;;;;;3.80;1.92;;;;;;;17.54;20.52;100734.03;5073895;28;20032;-71
2022/03/10 14:46:18;;;;;;;2.90;2.10;;;;;;;17.67;19.56;100748.50;5074121;28;20032;-71
2022/03/10 14:48:44;;;;;;;3.38;2.28;;;;;;;17.59;19.35;100736.06;5073857;28;20037;-71
2022/03/10 14:51:11;;;;;;;4.70;2.10;;;;;;;17.43;19.93;100726.56;5073960;28;20126;-71
2022/03/10 14:53:37;;;;;;;3.77;2.30;;;;;;;17.49;19.88;100730.28;5073181;28;20032;-71
2022/03/10 14:56:03;;;;;;;2.85;2.10;;;;;;;17.26;19.96;100725.28;5073954;28;20471;-73
2022/03/10 14:58:29;;;;;;;3.05;2.15;;;;;;;17.18;20.33;100722.78;5073748;28;20048;-72
2022/03/10 15:00:55;;;;;;;3.67;2.30;;;;;;;17.15;19.88;100717.81;5073558;28;20045;-71
2022/03/10 15:03:21;;;;;;;3.22;2.08;;;;;;;16.96;19.77;100731.03;5072254;28;20055;-71
2022/03/10 15:05:47;;;;;;;2.92;2.15;;;;;;;16.83;20.05;100724.81;5073708;28;20044;-72
2022/03/10 15:08:13;;;;;;;5.22;2.92;;;;;;;16.66;20.21;100725.13;5072327;28;20568;-71
2022/03/10 15:10:39;;;;;;;4.05;2.30;;;;;;;16.62;19.98;100721.16;5073902;28;20131;-72
2022/03/10 15:13:04;;;;;;;4.15;2.60;;;;;;;16.64;20.02;100723.66;5073143;28;20040;-71
2022/03/10 15:15:32;;;;;;;3.33;2.20;;;;;;;16.39;20.54;100723.34;5073387;28;20412;-71
2022/03/10 15:18:00;;;;;;;3.28;2.45;;;;;;;16.38;19.77;100719.00;5073318;28;20063;-72
2022/03/10 15:20:26;;;;;;;3.22;2.33;;;;;;;16.35;19.95;100708.63;5073550;28;20024;-72
2022/03/10 15:22:55;;;;;;;6.97;2.43;;;;;;;16.43;20.03;100706.63;5072975;28;20041;-71
2022/03/10 15:25:28;;;;;;;4.15;2.20;;;;;;;16.45;20.04;100719.88;5073441;28;20045;-71
2022/03/10 15:27:57;;;;;;;4.82;2.40;;;;;;;16.20;20.20;100720.34;5073257;28;20489;-73
2022/03/10 15:30:24;;;;;;;3.08;2.33;;;;;;;16.25;20.35;100698.25;5073194;28;20025;-71
2022/03/10 15:32:50;;;;;;;4.90;2.70;;;;;;;16.26;20.04;100700.75;5072773;28;20028;-72
2022/03/10 15:35:18;;;;;;;4.50;2.50;;;;;;;16.23;20.21;100706.50;5072946;28;20050;-72
2022/03/10 15:37:46;;;;;;;3.45;2.50;;;;;;;15.96;20.32;100686.72;5073002;28;20064;-71
2022/03/10 15:40:13;;;;;;;4.13;2.80;;;;;;;16.14;20.38;100704.19;5072928;28;20075;-71
2022/03/10 15:42:41;;;;;;;3.93;2.30;;;;;;;16.12;20.33;100698.19;5072520;28;20032;-72
2022/03/10 15:45:08;;;;;;;4.45;2.28;;;;;;;15.95;20.55;100698.50;5072870;28;20361;-72
2022/03/10 15:47:33;;;;;;;3.33;2.20;;;;;;;15.96;20.71;100691.28;5071923;28;20094;-71
2022/03/10 15:50:03;;;;;;;3.50;2.63;;;;;;;15.86;21.14;100694.31;5072996;28;20271;-72
2022/03/10 15:52:33;;;;;;;5.03;2.65;;;;;;;15.92;21.55;100696.22;5072412;28;20024;-71
2022/03/10 15:54:59;;;;;;;3.33;2.25;;;;;;;15.96;21.52;100689.41;5072807;28;20098;-72
2022/03/10 15:57:29;;;;;;;4.47;2.67;;;;;;;15.88;21.29;100680.69;5071441;28;20523;-71
2022/03/10 15:59:59;;;;;;;3.95;3.00;;;;;;;15.85;21.21;100689.97;5072858;28;20082;-70
2022/03/10 16:02:28;;;;;;;4.13;2.83;;;;;;;15.79;21.47;100680.03;5072134;28;20098;-72
2022/03/10 16:04:55;;;;;;;3.38;2.47;;;;;;;15.88;21.02;100680.69;5071787;28;20029;-71
2022/03/10 16:07:23;;;;;;;3.13;2.40;;;;;;;15.74;21.16;100671.72;5072077;28;20115;-72
2022/03/10 16:09:55;;;;;;;4.13;2.70;;;;;;;15.79;20.75;100663.91;5071235;28;20151;-71
2022/03/10 16:12:22;;;;;;;3.65;2.47;;;;;;;15.79;20.99;100668.44;5070820;28;20107;-72
2022/03/10 16:14:48;;;;;;;4.25;2.85;;;;;;;15.77;21.31;100665.94;5072428;28;20493;-72
2022/03/10 16:17:15;;;;;;;4.18;2.90;;;;;;;15.62;21.18;100643.75;5072131;28;20047;-71
2022/03/10 16:19:44;;;;;;;4.63;2.88;;;;;;;15.62;21.08;100652.63;5072085;28;20029;-72
2022/03/10 16:22:10;;;;;;;5.57;2.80;;;;;;;15.60;21.48;100660.03;5071644;28;20112;-70
2022/03/10 16:24:37;;;;;;;4.55;2.83;;;;;;;15.54;21.16;100666.19;5071830;28;20049;-70
2022/03/10 16:27:03;;;;;;;3.22;2.60;;;;;;;15.54;21.52;100659.97;5071925;28;20068;-71
2022/03/10 16:29:29;;;;;;;5.28;2.83;;;;;;;15.51;21.91;100668.41;5072055;28;20059;-73
2022/03/10 16:31:58;;;;;;;3.78;2.55;;;;;;;15.44;21.79;100652.25;5071263;28;20036;-71
2022/03/10 16:34:25;;;;;;;6.63;2.88;;;;;;;15.44;22.29;100658.44;5071807;28;20485;-71
2022/03/10 16:36:51;;;;;;;4.90;2.60;;;;;;;15.40;22.12;100661.75;5070576;28;20032;-70
2022/03/10 16:39:17;;;;;;;4.28;2.70;;;;;;;15.30;22.47;100662.06;5071691;28;20035;-70
2022/03/10 16:41:45;;;;;;;6.38;3.00;;;;;;;15.26;22.38;100668.00;5071210;28;20049;-70
2022/03/10 16:44:13;;;;;;;5.07;2.88;;;;;;;15.29;22.70;100663.09;5071736;28;20094;-70
2022/03/10 16:46:46;;;;;;;4.75;3.05;;;;;;;15.22;22.79;100661.38;5071423;28;20040;-70
2022/03/10 16:49:14;;;;;;;4.65;2.92;;;;;;;15.11;23.06;100663.53;5071905;28;20610;-70
2022/03/10 16:51:41;;;;;;;6.68;3.40;;;;;;;15.10;23.19;100664.56;5071454;28;20024;-70
2022/03/10 16:54:07;;;;;;;4.43;3.37;;;;;;;15.00;23.17;100658.72;5071764;28;20119;-70